Mirage, Colorado
Current Conditions -  °F | °C
As of 9:12 PM on Sunday 21 Dec 2014 (Local Time) from K04V Reporting Station
Overcast Overcast  
Wind Chill: 27°   Ceiling: 3500
Heat Index: 36°   Visibility: 10mi
Dew Point: 30°   Wind: 13mph
Humidity: 81%   Direction: 340°NNW
Pressure: 29.76"   Gusts: 18mph
Location:  37.9777°N, 105.779°W
Report Text: K04V 220412Z AUTO 34011G16KT 10SM SCT028 BKN035 OVC041 02/M01 A2976 RMK AO2
Loading
Personal Weather Stations






























Interactive Weather Map New forecast layout! Learn more

10-Day Weather Forecast

Advertisements
Track Severe Weather on mobile